createdAt,value
2018-06-29T00:01:16.963Z,8.37
2018-06-29T00:03:45.504Z,6.27
2018-06-29T00:06:14.101Z,5.60
2018-06-29T00:08:42.651Z,4.93
2018-06-29T00:11:11.228Z,7.00
2018-06-29T00:13:39.756Z,5.03
2018-06-29T00:16:08.598Z,6.30
2018-06-29T00:18:37.484Z,8.30
2018-06-29T00:21:06.354Z,7.23
2018-06-29T00:23:35.223Z,5.40
2018-06-29T00:26:03.923Z,5.90
2018-06-29T00:28:32.456Z,5.73
2018-06-29T00:31:01.031Z,7.87
2018-06-29T00:33:29.583Z,5.77
2018-06-29T00:35:58.133Z,5.77
2018-06-29T00:38:27.001Z,7.17
2018-06-29T00:40:55.866Z,5.77
2018-06-29T00:43:24.773Z,5.93
2018-06-29T00:45:53.748Z,6.43
2018-06-29T00:48:22.603Z,5.67
2018-06-29T00:50:51.480Z,5.83
2018-06-29T00:53:20.373Z,7.00
2018-06-29T00:55:49.257Z,5.70
2018-06-29T00:58:17.945Z,6.03
2018-06-29T01:00:46.471Z,5.83
2018-06-29T01:03:15.323Z,7.97
2018-06-29T01:05:44.181Z,9.37
2018-06-29T01:08:13.118Z,7.77
2018-06-29T01:10:41.981Z,11.20
2018-06-29T01:13:10.841Z,6.67
2018-06-29T01:15:39.775Z,7.00
2018-06-29T01:18:08.747Z,7.77
2018-06-29T01:20:37.908Z,8.30
2018-06-29T01:23:06.873Z,6.77
2018-06-29T01:25:36.023Z,6.77
2018-06-29T01:28:05.076Z,6.43
2018-06-29T01:30:33.896Z,7.70
2018-06-29T01:33:02.721Z,6.40
2018-06-29T01:35:31.540Z,6.50
2018-06-29T01:38:00.432Z,5.77
2018-06-29T01:40:29.363Z,5.40
2018-06-29T01:42:58.194Z,6.10
2018-06-29T01:45:27.746Z,6.10
2018-06-29T01:47:56.686Z,6.50
2018-06-29T01:50:25.577Z,9.97
2018-06-29T01:52:54.796Z,8.43
2018-06-29T01:55:23.728Z,9.47
2018-06-29T01:57:52.612Z,8.77
2018-06-29T02:00:21.548Z,8.00
2018-06-29T02:02:50.491Z,10.37
2018-06-29T02:05:19.508Z,9.37
2018-06-29T02:07:48.463Z,9.77
2018-06-29T02:10:17.448Z,8.77
2018-06-29T02:12:46.406Z,13.00
2018-06-29T02:15:15.358Z,9.30
2018-06-29T02:17:44.348Z,7.97
2018-06-29T02:20:13.365Z,9.10
2018-06-29T02:22:42.278Z,10.63
2018-06-29T02:25:11.213Z,9.57
2018-06-29T02:27:40.161Z,8.93
2018-06-29T02:30:09.217Z,7.80
2018-06-29T02:32:38.115Z,10.23
2018-06-29T02:35:07.061Z,7.07
2018-06-29T02:37:36.001Z,9.03
2018-06-29T02:40:05.318Z,9.30
2018-06-29T02:42:34.275Z,10.10
2018-06-29T02:45:03.225Z,7.87
2018-06-29T02:47:32.187Z,8.00
2018-06-29T02:50:01.083Z,8.90
2018-06-29T02:52:29.931Z,8.00
2018-06-29T02:54:58.773Z,9.67
2018-06-29T02:57:27.979Z,10.40
2018-06-29T02:59:57.895Z,11.83
2018-06-29T03:02:26.716Z,10.77
2018-06-29T03:04:55.608Z,11.60
2018-06-29T03:07:24.512Z,8.83
2018-06-29T03:09:53.145Z,8.00
2018-06-29T03:12:22.621Z,10.57
2018-06-29T03:14:51.567Z,9.17
2018-06-29T03:17:20.601Z,9.27
2018-06-29T03:19:49.523Z,11.30
2018-06-29T03:22:18.228Z,9.80
2018-06-29T03:24:46.928Z,11.13
2018-06-29T03:27:15.615Z,11.83
2018-06-29T03:29:44.315Z,9.53
2018-06-29T03:32:13.095Z,10.47
2018-06-29T03:34:41.785Z,10.23
2018-06-29T03:37:10.415Z,12.70
2018-06-29T03:39:38.963Z,8.83
2018-06-29T03:42:07.588Z,8.03
2018-06-29T03:44:36.463Z,10.77
2018-06-29T03:47:05.643Z,10.73
2018-06-29T03:49:34.589Z,8.13
2018-06-29T03:52:03.600Z,10.67
2018-06-29T03:54:32.518Z,8.80
2018-06-29T03:57:01.433Z,8.17
2018-06-29T03:59:30.363Z,8.37
2018-06-29T04:01:59.273Z,9.17
2018-06-29T04:04:28.295Z,8.07
2018-06-29T04:06:57.258Z,7.23
2018-06-29T04:09:26.200Z,9.20
2018-06-29T04:11:55.240Z,7.37
2018-06-29T04:14:24.129Z,10.20
2018-06-29T04:16:53.081Z,7.43
2018-06-29T04:19:21.955Z,7.23
2018-06-29T04:21:50.825Z,5.87
2018-06-29T04:24:19.773Z,9.67
2018-06-29T04:26:48.640Z,7.07
2018-06-29T04:29:17.561Z,5.33
2018-06-29T04:31:46.380Z,6.50
2018-06-29T04:34:15.002Z,6.90
2018-06-29T04:36:43.570Z,10.00
2018-06-29T04:39:12.182Z,7.27
2018-06-29T04:41:40.730Z,6.77
2018-06-29T04:44:09.400Z,10.10
2018-06-29T04:46:38.310Z,8.30
2018-06-29T04:49:07.200Z,5.17
2018-06-29T04:51:36.086Z,6.37
2018-06-29T04:54:04.992Z,5.73
2018-06-29T04:56:33.888Z,6.63
2018-06-29T04:59:02.745Z,6.73
2018-06-29T05:01:31.602Z,9.20
2018-06-29T05:04:00.450Z,8.03
2018-06-29T05:06:29.443Z,6.60
2018-06-29T05:08:58.297Z,7.83
2018-06-29T05:11:27.155Z,6.93
2018-06-29T05:13:56.010Z,6.33
2018-06-29T05:16:24.675Z,8.53
2018-06-29T05:18:53.270Z,8.63
2018-06-29T05:21:21.795Z,6.47
2018-06-29T05:23:50.340Z,4.63
2018-06-29T05:26:18.935Z,4.30
2018-06-29T05:28:47.530Z,5.53
2018-06-29T05:31:16.063Z,4.10
2018-06-29T05:33:44.673Z,4.30
2018-06-29T05:36:13.299Z,6.03
2018-06-29T05:38:41.849Z,4.23
2018-06-29T05:41:10.533Z,5.70
2018-06-29T05:43:39.120Z,9.07
2018-06-29T05:46:07.758Z,4.87
2018-06-29T05:48:36.408Z,6.23
2018-06-29T05:51:05.007Z,3.53
2018-06-29T05:53:33.535Z,5.47
2018-06-29T05:56:02.203Z,6.13
2018-06-29T05:58:31.029Z,4.67
2018-06-29T06:00:59.680Z,11.83
2018-06-29T06:03:28.368Z,7.33
2018-06-29T06:05:57.498Z,5.13
2018-06-29T06:08:26.339Z,11.73
2018-06-29T06:10:55.487Z,7.10
2018-06-29T06:13:24.772Z,7.67
2018-06-29T06:15:53.811Z,10.10
2018-06-29T06:18:22.644Z,7.10
2018-06-29T06:20:51.415Z,8.73
2018-06-29T06:23:20.865Z,8.20
2018-06-29T06:25:49.597Z,5.77
2018-06-29T06:28:18.755Z,6.23
2018-06-29T06:30:51.228Z,7.83
2018-06-29T06:33:19.838Z,9.83
2018-06-29T06:35:48.684Z,5.00
2018-06-29T06:38:18.451Z,8.55
2018-06-29T06:40:47.559Z,8.43
2018-06-29T06:43:16.511Z,9.87
2018-06-29T06:45:50.238Z,21.05
2018-06-29T06:48:18.878Z,22.87
2018-06-29T06:50:47.516Z,14.13
2018-06-29T06:53:16.104Z,5.08
2018-06-29T06:55:44.736Z,8.93
2018-06-29T06:58:13.591Z,5.78
2018-06-29T07:00:42.503Z,6.78
2018-06-29T07:03:11.417Z,16.95
2018-06-29T07:05:40.318Z,7.70
2018-06-29T07:08:09.056Z,25.80
2018-06-29T07:10:37.653Z,5.35
2018-06-29T07:13:06.320Z,7.22
2018-06-29T07:15:34.933Z,8.15
2018-06-29T07:18:03.783Z,3.58
2018-06-29T07:20:33.383Z,7.40
2018-06-29T07:23:02.331Z,3.65
2018-06-29T07:25:31.263Z,3.95
2018-06-29T07:28:00.030Z,2.92
2018-06-29T07:30:28.966Z,6.75
2018-06-29T07:32:57.915Z,2.75
2018-06-29T07:35:26.878Z,4.78
2018-06-29T07:37:55.953Z,2.10
2018-06-29T07:40:24.858Z,3.30
2018-06-29T07:42:53.788Z,3.85
2018-06-29T07:45:22.713Z,5.92
2018-06-29T07:47:51.597Z,3.60
2018-06-29T07:50:20.570Z,2.50
2018-06-29T07:52:49.324Z,1.92
2018-06-29T07:55:17.778Z,2.77
2018-06-29T07:57:46.508Z,1.92
2018-06-29T08:00:15.152Z,4.35
2018-06-29T08:02:43.963Z,3.62
2018-06-29T08:05:12.874Z,4.28
2018-06-29T08:07:41.691Z,1.87
2018-06-29T08:10:10.561Z,2.08
2018-06-29T08:12:39.249Z,4.95
2018-06-29T08:15:07.892Z,1.62
2018-06-29T08:17:36.443Z,2.05
2018-06-29T08:20:05.058Z,3.22
2018-06-29T08:22:34.029Z,5.40
2018-06-29T08:25:15.745Z,2.65
2018-06-29T08:27:44.955Z,2.12
2018-06-29T08:30:14.556Z,3.50
2018-06-29T08:32:43.492Z,2.58
2018-06-29T08:35:12.183Z,1.82
2018-06-29T08:37:40.705Z,2.40
2018-06-29T08:40:09.873Z,1.40
2018-06-29T08:42:38.620Z,3.00
2018-06-29T08:45:08.694Z,1.37
2018-06-29T08:47:37.523Z,1.80
2018-06-29T08:50:06.604Z,3.67
2018-06-29T08:52:35.505Z,3.15
2018-06-29T08:55:04.883Z,2.85
2018-06-29T08:57:33.430Z,2.02
2018-06-29T09:00:02.033Z,1.70
2018-06-29T09:02:30.643Z,2.92
2018-06-29T09:04:59.281Z,1.77
2018-06-29T09:07:27.838Z,3.42
2018-06-29T09:09:56.403Z,2.42
2018-06-29T09:12:25.021Z,2.10
2018-06-29T09:14:53.648Z,2.42
2018-06-29T09:17:22.440Z,2.92
2018-06-29T09:19:51.389Z,2.02
2018-06-29T09:22:20.288Z,2.83
2018-06-29T09:24:49.614Z,1.47
2018-06-29T09:27:18.647Z,1.60
2018-06-29T09:29:47.251Z,7.87
2018-06-29T09:32:17.831Z,3.45
2018-06-29T09:34:46.383Z,2.75
2018-06-29T09:37:15.296Z,1.50
2018-06-29T09:39:44.248Z,1.70
2018-06-29T09:42:13.168Z,3.10
2018-06-29T09:44:42.557Z,2.55
2018-06-29T09:47:11.506Z,3.40
2018-06-29T09:49:40.415Z,2.35
2018-06-29T09:52:09.383Z,5.45
2018-06-29T09:54:38.411Z,1.65
2018-06-29T09:57:08.196Z,1.50
2018-06-29T09:59:37.244Z,2.10
2018-06-29T10:02:06.258Z,2.08
2018-06-29T10:04:35.741Z,2.27
2018-06-29T10:07:04.576Z,1.50
2018-06-29T10:09:33.143Z,4.70
2018-06-29T10:12:01.776Z,1.90
2018-06-29T10:14:30.454Z,2.60
2018-06-29T10:16:59.424Z,2.65
2018-06-29T10:19:28.393Z,3.65
2018-06-29T10:21:57.368Z,3.00
2018-06-29T10:24:26.234Z,2.83
2018-06-29T10:26:55.216Z,2.87
2018-06-29T10:29:24.083Z,1.67
2018-06-29T10:31:53.076Z,2.55
2018-06-29T10:34:21.933Z,1.77
2018-06-29T10:36:50.625Z,3.20
2018-06-29T10:39:19.301Z,2.08
2018-06-29T10:41:47.905Z,3.30
2018-06-29T10:44:16.463Z,1.75
2018-06-29T10:46:46.181Z,1.57
2018-06-29T10:49:14.783Z,4.33
2018-06-29T10:51:43.436Z,3.22
2018-06-29T10:54:12.014Z,1.72
2018-06-29T10:56:40.844Z,1.42
2018-06-29T10:59:09.776Z,1.98
2018-06-29T11:01:38.666Z,2.77
2018-06-29T11:04:07.563Z,2.70
2018-06-29T11:06:36.224Z,1.87
2018-06-29T11:09:08.503Z,1.80
2018-06-29T11:11:37.144Z,2.50
2018-06-29T11:14:06.510Z,1.60
2018-06-29T11:16:37.184Z,2.60
2018-06-29T11:19:05.831Z,2.52
2018-06-29T11:21:34.461Z,1.90
2018-06-29T11:24:03.026Z,2.30
2018-06-29T11:26:31.603Z,2.12
2018-06-29T11:29:00.171Z,4.83
2018-06-29T11:31:28.774Z,2.95
2018-06-29T11:33:57.464Z,1.40
2018-06-29T11:36:26.559Z,1.77
2018-06-29T11:38:55.187Z,2.50
2018-06-29T11:41:23.854Z,1.40
2018-06-29T11:43:52.424Z,4.50
2018-06-29T11:46:22.249Z,2.30
2018-06-29T11:48:51.164Z,1.80
2018-06-29T11:51:20.104Z,1.70
2018-06-29T11:53:49.025Z,1.70
2018-06-29T11:56:18.025Z,2.62
2018-06-29T11:58:47.036Z,2.98
2018-06-29T12:01:21.274Z,2.67
2018-06-29T12:03:50.849Z,1.92
2018-06-29T12:06:22.123Z,2.10
2018-06-29T12:08:50.937Z,3.25
2018-06-29T12:11:19.582Z,3.17
2018-06-29T12:13:48.575Z,2.58
2018-06-29T12:16:17.232Z,2.58
2018-06-29T12:18:45.807Z,2.40
2018-06-29T12:21:14.409Z,2.87
2018-06-29T12:23:43.219Z,1.37
2018-06-29T12:26:12.802Z,3.10
2018-06-29T12:28:41.764Z,2.95
2018-06-29T12:31:10.676Z,1.57
2018-06-29T12:33:39.549Z,1.50
2018-06-29T12:36:08.519Z,1.92
2018-06-29T12:38:37.391Z,2.25
2018-06-29T12:41:06.489Z,1.70
2018-06-29T12:43:35.574Z,2.05
2018-06-29T12:46:04.309Z,3.17
2018-06-29T12:48:32.899Z,2.98
2018-06-29T12:51:01.606Z,3.17
2018-06-29T12:53:31.157Z,3.40
2018-06-29T12:56:00.133Z,3.52
2018-06-29T12:58:29.641Z,5.90
2018-06-29T13:00:58.626Z,2.22
2018-06-29T13:03:27.572Z,1.62
2018-06-29T13:05:56.559Z,1.40
2018-06-29T13:08:25.623Z,3.05
2018-06-29T13:10:54.463Z,3.00
2018-06-29T13:13:23.318Z,2.00
2018-06-29T13:15:52.170Z,2.98
2018-06-29T13:18:20.794Z,2.98
2018-06-29T13:20:52.444Z,1.60
2018-06-29T13:23:21.061Z,2.77
2018-06-29T13:25:50.029Z,2.02
2018-06-29T13:28:18.631Z,6.35
2018-06-29T13:30:47.561Z,1.62
2018-06-29T13:33:16.923Z,1.95
2018-06-29T13:35:45.728Z,2.37
2018-06-29T13:38:14.621Z,4.78
2018-06-29T13:40:44.349Z,2.00
2018-06-29T13:43:13.266Z,2.45
2018-06-29T13:45:41.931Z,2.17
2018-06-29T13:48:10.578Z,2.20
2018-06-29T13:50:39.156Z,2.05
2018-06-29T13:53:07.778Z,2.30
2018-06-29T13:55:36.543Z,4.22
2018-06-29T13:58:05.447Z,7.78
2018-06-29T14:00:34.385Z,5.22
2018-06-29T14:03:03.271Z,1.60
2018-06-29T14:05:31.968Z,1.70
2018-06-29T14:08:00.549Z,1.80
2018-06-29T14:10:29.438Z,4.42
2018-06-29T14:12:58.013Z,5.10
2018-06-29T14:15:26.565Z,2.25
2018-06-29T14:17:55.179Z,2.52
2018-06-29T14:20:23.703Z,1.70
2018-06-29T14:22:52.281Z,2.65
2018-06-29T14:25:21.094Z,2.67
2018-06-29T14:27:50.923Z,3.05
2018-06-29T14:30:19.888Z,4.17
2018-06-29T14:32:49.206Z,3.62
2018-06-29T14:35:18.111Z,3.20
2018-06-29T14:37:47.013Z,2.08
2018-06-29T14:40:15.908Z,2.87
2018-06-29T14:42:44.748Z,1.90
2018-06-29T14:45:13.405Z,2.22
2018-06-29T14:47:41.979Z,4.15
2018-06-29T14:50:10.577Z,3.22
2018-06-29T14:52:39.180Z,1.72
2018-06-29T14:55:07.976Z,2.80
2018-06-29T14:57:36.908Z,5.25
2018-06-29T15:00:09.249Z,3.20
2018-06-29T15:02:38.625Z,3.60
2018-06-29T15:05:07.309Z,3.47
2018-06-29T15:07:35.922Z,2.98
2018-06-29T15:10:04.874Z,2.05
2018-06-29T15:12:33.467Z,4.80
2018-06-29T15:15:02.004Z,2.10
2018-06-29T15:17:30.556Z,3.35
2018-06-29T15:19:59.090Z,2.17
2018-06-29T15:22:27.636Z,2.30
2018-06-29T15:24:56.484Z,2.58
2018-06-29T15:27:25.324Z,5.15
2018-06-29T15:29:54.994Z,1.60
2018-06-29T15:32:23.904Z,3.15
2018-06-29T15:34:52.819Z,4.35
2018-06-29T15:37:21.707Z,1.55
2018-06-29T15:39:50.649Z,7.95
2018-06-29T15:42:19.524Z,2.55
2018-06-29T15:44:49.175Z,3.42
2018-06-29T15:47:17.821Z,3.58
2018-06-29T15:49:46.706Z,1.50
2018-06-29T15:52:15.654Z,2.00
2018-06-29T15:54:44.369Z,3.72
2018-06-29T15:57:12.943Z,1.87
2018-06-29T15:59:41.792Z,1.60
2018-06-29T16:02:10.786Z,1.65
2018-06-29T16:04:39.695Z,3.15
2018-06-29T16:07:08.276Z,2.58
2018-06-29T16:09:36.844Z,3.10
2018-06-29T16:12:05.466Z,2.27
2018-06-29T16:14:34.079Z,3.80
2018-06-29T16:17:02.654Z,1.82
2018-06-29T16:19:31.191Z,2.65
2018-06-29T16:21:59.806Z,4.97
2018-06-29T16:24:28.560Z,1.90
2018-06-29T16:26:58.381Z,2.22
2018-06-29T16:29:28.282Z,1.70
2018-06-29T16:31:57.196Z,1.90
2018-06-29T16:34:26.055Z,5.85
2018-06-29T16:36:55.043Z,3.50
2018-06-29T16:39:23.972Z,3.50
2018-06-29T16:41:53.446Z,2.37
2018-06-29T16:44:24.331Z,4.83
2018-06-29T16:46:53.221Z,2.42
2018-06-29T16:49:22.111Z,2.37
2018-06-29T16:51:51.076Z,2.52
2018-06-29T16:54:20.084Z,6.08
2018-06-29T16:56:49.176Z,2.90
2018-06-29T16:59:17.999Z,6.30
2018-06-29T17:01:47.514Z,3.40
2018-06-29T17:04:16.436Z,5.80
2018-06-29T17:06:45.411Z,5.08
2018-06-29T17:09:14.073Z,3.42
2018-06-29T17:11:42.964Z,2.35
2018-06-29T17:14:11.676Z,1.92
2018-06-29T17:16:40.054Z,2.45
2018-06-29T17:19:08.654Z,2.98
2018-06-29T17:21:37.684Z,5.58
2018-06-29T17:24:06.825Z,7.55
2018-06-29T17:26:35.749Z,6.28
2018-06-29T17:29:04.856Z,4.60
2018-06-29T17:31:34.825Z,6.17
2018-06-29T17:34:03.947Z,4.67
2018-06-29T17:36:32.811Z,5.92
2018-06-29T17:39:03.836Z,5.70
2018-06-29T17:41:32.688Z,4.17
2018-06-29T17:44:02.098Z,3.20
2018-06-29T17:46:32.236Z,6.30
2018-06-29T17:49:01.166Z,2.27
2018-06-29T17:51:30.056Z,3.58
2018-06-29T17:53:59.586Z,2.40
2018-06-29T17:56:28.393Z,2.50
2018-06-29T17:58:57.310Z,2.62
2018-06-29T18:01:26.290Z,3.43
2018-06-29T18:03:55.879Z,6.50
2018-06-29T18:06:24.586Z,2.27
2018-06-29T18:08:53.206Z,3.20
2018-06-29T18:11:22.148Z,5.93
2018-06-29T18:13:50.937Z,3.47
2018-06-29T18:16:19.847Z,3.50
2018-06-29T18:18:48.879Z,4.93
2018-06-29T18:21:18.217Z,3.87
2018-06-29T18:23:46.989Z,6.58
2018-06-29T18:26:16.953Z,5.83
2018-06-29T18:28:45.531Z,3.43
2018-06-29T18:31:14.157Z,2.20
2018-06-29T18:33:42.951Z,2.67
2018-06-29T18:36:11.887Z,2.87
2018-06-29T18:38:40.811Z,5.00
2018-06-29T18:41:10.004Z,4.67
2018-06-29T18:43:38.894Z,5.43
2018-06-29T18:46:07.793Z,4.07
2018-06-29T18:48:36.671Z,2.70
2018-06-29T18:51:05.547Z,3.13
2018-06-29T18:53:34.283Z,4.47
2018-06-29T18:56:03.501Z,3.50
2018-06-29T18:58:32.061Z,2.97
2018-06-29T19:01:00.704Z,3.53
2018-06-29T19:03:29.597Z,4.70
2018-06-29T19:05:58.456Z,2.60
2018-06-29T19:08:27.313Z,7.00
2018-06-29T19:10:56.308Z,3.40
2018-06-29T19:13:24.996Z,3.57
2018-06-29T19:15:53.548Z,4.20
2018-06-29T19:18:22.371Z,6.20
2018-06-29T19:20:50.986Z,2.50
2018-06-29T19:23:19.608Z,3.90
2018-06-29T19:25:48.191Z,4.80
2018-06-29T19:28:16.836Z,4.30
2018-06-29T19:30:45.590Z,3.40
2018-06-29T19:33:14.401Z,2.90
2018-06-29T19:35:43.504Z,3.40
2018-06-29T19:38:12.490Z,2.60
2018-06-29T19:40:41.468Z,4.10
2018-06-29T19:43:11.034Z,3.07
2018-06-29T19:45:39.673Z,4.17
2018-06-29T19:48:08.330Z,5.37
2018-06-29T19:50:51.768Z,4.23
2018-06-29T19:53:20.568Z,2.77
2018-06-29T19:55:49.238Z,6.63
2018-06-29T19:58:17.883Z,3.70
2018-06-29T20:00:46.469Z,9.50
2018-06-29T20:03:15.329Z,5.43
2018-06-29T20:05:44.966Z,4.90
2018-06-29T20:08:14.393Z,2.67
2018-06-29T20:10:43.296Z,5.60
2018-06-29T20:13:12.648Z,5.73
2018-06-29T20:15:42.446Z,4.57
2018-06-29T20:18:11.451Z,5.50
2018-06-29T20:20:41.023Z,5.40
2018-06-29T20:23:09.695Z,9.77
2018-06-29T20:25:38.951Z,3.03
2018-06-29T20:28:07.574Z,5.37
2018-06-29T20:30:36.187Z,8.57
2018-06-29T20:33:04.804Z,6.70
2018-06-29T20:35:33.339Z,7.00
2018-06-29T20:38:02.338Z,6.13
2018-06-29T20:40:31.196Z,8.23
2018-06-29T20:43:00.492Z,5.47
2018-06-29T20:45:29.158Z,4.77
2018-06-29T20:47:57.701Z,6.00
2018-06-29T20:50:26.376Z,4.47
2018-06-29T20:52:55.070Z,6.93
2018-06-29T20:55:23.642Z,8.20
2018-06-29T20:57:52.266Z,5.03
2018-06-29T21:00:20.796Z,6.30
2018-06-29T21:02:49.462Z,3.57
2018-06-29T21:05:18.282Z,9.00
2018-06-29T21:07:47.180Z,5.70
2018-06-29T21:10:16.119Z,4.67
2018-06-29T21:12:45.054Z,5.27
2018-06-29T21:15:13.781Z,3.57
2018-06-29T21:17:42.488Z,3.40
2018-06-29T21:20:11.236Z,3.60
2018-06-29T21:22:39.848Z,5.27
2018-06-29T21:25:08.681Z,3.07
2018-06-29T21:27:37.516Z,2.50
2018-06-29T21:30:07.471Z,2.93
2018-06-29T21:32:36.496Z,2.60
2018-06-29T21:35:05.786Z,8.83
2018-06-29T21:37:34.656Z,3.30
2018-06-29T21:40:03.666Z,2.67
2018-06-29T21:42:32.571Z,4.20
2018-06-29T21:45:01.530Z,2.63
2018-06-29T21:47:30.356Z,3.27
2018-06-29T21:49:59.403Z,3.53
2018-06-29T21:52:28.262Z,4.50
2018-06-29T21:54:56.908Z,3.57
2018-06-29T21:57:25.488Z,2.90
2018-06-29T21:59:53.998Z,4.07
2018-06-29T22:02:22.567Z,2.93
2018-06-29T22:04:54.095Z,3.23
2018-06-29T22:07:23.218Z,4.83
2018-06-29T22:09:58.616Z,7.50
2018-06-29T22:12:27.606Z,5.60
2018-06-29T22:14:56.533Z,2.80
2018-06-29T22:17:25.508Z,6.80
2018-06-29T22:19:54.398Z,3.23
2018-06-29T22:22:23.265Z,2.53
2018-06-29T22:24:52.128Z,2.67
2018-06-29T22:27:21.226Z,4.00
2018-06-29T22:29:50.106Z,4.43
2018-06-29T22:32:18.963Z,5.97
2018-06-29T22:34:47.826Z,4.53
2018-06-29T22:37:16.744Z,7.00
2018-06-29T22:39:45.630Z,3.87
2018-06-29T22:42:14.516Z,3.10
2018-06-29T22:44:43.236Z,3.70
2018-06-29T22:47:11.778Z,4.90
2018-06-29T22:49:40.301Z,2.23
2018-06-29T22:52:08.864Z,3.67
2018-06-29T22:54:37.649Z,5.97
2018-06-29T22:57:06.511Z,3.40
2018-06-29T22:59:36.061Z,2.67
2018-06-29T23:02:04.954Z,2.37
2018-06-29T23:04:34.917Z,3.83
2018-06-29T23:07:03.904Z,2.60
2018-06-29T23:09:32.962Z,4.07
2018-06-29T23:12:01.831Z,3.10
2018-06-29T23:14:30.499Z,3.60
2018-06-29T23:16:59.059Z,7.47
2018-06-29T23:19:28.300Z,4.47
2018-06-29T23:21:56.819Z,7.93
2018-06-29T23:24:25.638Z,5.43
2018-06-29T23:26:54.764Z,6.43
2018-06-29T23:29:23.637Z,8.33
2018-06-29T23:31:52.606Z,6.53
2018-06-29T23:34:21.293Z,6.77
2018-06-29T23:36:49.861Z,4.33
2018-06-29T23:39:18.361Z,5.83
2018-06-29T23:41:46.889Z,13.03
2018-06-29T23:44:15.456Z,5.73
2018-06-29T23:46:44.033Z,5.67
2018-06-29T23:49:12.631Z,3.00
2018-06-29T23:51:41.254Z,4.00
2018-06-29T23:54:10.031Z,5.40
2018-06-29T23:56:38.961Z,4.50
2018-06-29T23:59:07.973Z,5.03
